GLD080 SNMZ-SNTI
Flight info
| Callsign | GLD080 |
|---|---|
| Flight time | 0h 53m |
| Altitude | 24000 |
| Route | DCT TESEV EMAKE DCT |
| Aircraft | B350/M-SDFGIRY/S |
Departure
| Time | 2026-05-04 19:19 |
|---|---|
| Airport | Porto de Moz Airport (SNMZ) |
Arrival
| Time | 2026-05-04 20:12 |
|---|---|
| Airport | Óbidos Municipal Airport (SNTI) |
| Time | Latitude | Longitude | Altitude | Speed | Heading |
|---|---|---|---|---|---|
| 2026-05-04 19:10 | -1.74877 | -52.23758 | 13 ft | 0 kts | 143° |
| 2026-05-04 19:15 | -1.74872 | -52.23761 | 13 ft | 2 kts | 142° |
| 2026-05-04 19:15 | -1.74859 | -52.23771 | 10 ft | 2 kts | 142° |
| 2026-05-04 19:15 | -1.74846 | -52.23781 | 9 ft | 2 kts | 141° |
| 2026-05-04 19:16 | -1.74834 | -52.23792 | 10 ft | 2 kts | 139° |
| 2026-05-04 19:16 | -1.74822 | -52.23803 | 11 ft | 2 kts | 134° |
| 2026-05-04 19:16 | -1.74809 | -52.23813 | 11 ft | 2 kts | 152° |
| 2026-05-04 19:16 | -1.74795 | -52.23812 | 10 ft | 1 kts | 227° |
| 2026-05-04 19:17 | -1.74796 | -52.23813 | 10 ft | 3 kts | 234° |
| 2026-05-04 19:17 | -1.74806 | -52.23821 | 10 ft | 0 kts | 228° |
| 2026-05-04 19:17 | -1.74812 | -52.23821 | 11 ft | 2 kts | 164° |
| 2026-05-04 19:17 | -1.74802 | -52.23810 | 10 ft | 6 kts | 314° |
| 2026-05-04 19:18 | -1.74757 | -52.23855 | 10 ft | 11 kts | 319° |
| 2026-05-04 19:18 | -1.74713 | -52.23905 | 12 ft | 7 kts | 348° |
| 2026-05-04 19:18 | -1.74555 | -52.23790 | 12 ft | 79 kts | 34° |
| 2026-05-04 19:18 | -1.73924 | -52.23315 | 365 ft | 124 kts | 32° |
| 2026-05-04 19:19 | -1.73248 | -52.22931 | 1327 ft | 112 kts | 27° |
| 2026-05-04 19:19 | -1.72393 | -52.22505 | 1710 ft | 161 kts | 28° |
| 2026-05-04 19:19 | -1.71286 | -52.21952 | 2077 ft | 193 kts | 20° |
| 2026-05-04 19:19 | -1.69874 | -52.21941 | 2443 ft | 218 kts | 346° |
| 2026-05-04 19:20 | -1.68564 | -52.22749 | 2791 ft | 234 kts | 315° |
| 2026-05-04 19:20 | -1.67772 | -52.24185 | 3137 ft | 242 kts | 284° |
| 2026-05-04 19:20 | -1.67805 | -52.25855 | 3613 ft | 238 kts | 252° |
| 2026-05-04 19:20 | -1.68609 | -52.27217 | 4507 ft | 220 kts | 229° |
| 2026-05-04 19:21 | -1.69785 | -52.28089 | 5380 ft | 206 kts | 206° |
| 2026-05-04 19:21 | -1.71029 | -52.28746 | 6261 ft | 199 kts | 204° |
| 2026-05-04 19:21 | -1.72262 | -52.29339 | 7069 ft | 196 kts | 201° |
| 2026-05-04 19:21 | -1.73502 | -52.29929 | 7819 ft | 198 kts | 202° |
| 2026-05-04 19:22 | -1.74730 | -52.30533 | 8562 ft | 200 kts | 203° |
| 2026-05-04 19:22 | -1.75984 | -52.31174 | 9318 ft | 203 kts | 204° |
| 2026-05-04 19:22 | -1.77244 | -52.31841 | 10035 ft | 206 kts | 205° |
| 2026-05-04 19:22 | -1.78417 | -52.32691 | 10701 ft | 211 kts | 220° |
| 2026-05-04 19:23 | -1.79431 | -52.33768 | 11371 ft | 215 kts | 227° |
| 2026-05-04 19:23 | -1.80354 | -52.34962 | 12041 ft | 218 kts | 231° |
| 2026-05-04 19:23 | -1.81237 | -52.36216 | 12717 ft | 222 kts | 234° |
| 2026-05-04 19:23 | -1.82051 | -52.37543 | 13399 ft | 225 kts | 238° |
| 2026-05-04 19:24 | -1.82811 | -52.38903 | 14027 ft | 228 kts | 240° |
| 2026-05-04 19:24 | -1.83547 | -52.40317 | 14643 ft | 230 kts | 241° |
| 2026-05-04 19:24 | -1.84280 | -52.41741 | 15270 ft | 231 kts | 241° |
| 2026-05-04 19:24 | -1.85027 | -52.43150 | 15875 ft | 233 kts | 240° |
| 2026-05-04 19:25 | -1.85821 | -52.44601 | 16512 ft | 235 kts | 239° |
| 2026-05-04 19:25 | -1.86620 | -52.46033 | 17129 ft | 237 kts | 239° |
| 2026-05-04 19:25 | -1.87427 | -52.47479 | 17753 ft | 239 kts | 239° |
| 2026-05-04 19:25 | -1.88238 | -52.48941 | 18337 ft | 241 kts | 239° |
| 2026-05-04 19:26 | -1.89041 | -52.50401 | 18862 ft | 243 kts | 240° |
| 2026-05-04 19:26 | -1.89854 | -52.51890 | 19397 ft | 245 kts | 240° |
| 2026-05-04 19:26 | -1.90676 | -52.53392 | 19925 ft | 247 kts | 240° |
| 2026-05-04 19:26 | -1.91504 | -52.54902 | 20455 ft | 249 kts | 239° |
| 2026-05-04 19:27 | -1.92352 | -52.56439 | 20843 ft | 258 kts | 239° |
| 2026-05-04 19:27 | -1.93238 | -52.58052 | 21098 ft | 270 kts | 240° |
| 2026-05-04 19:27 | -1.94155 | -52.59725 | 21375 ft | 278 kts | 240° |
| 2026-05-04 19:27 | -1.95097 | -52.61442 | 21639 ft | 285 kts | 240° |
| 2026-05-04 19:28 | -1.96058 | -52.63190 | 21909 ft | 289 kts | 240° |
| 2026-05-04 19:28 | -1.97031 | -52.64961 | 22187 ft | 292 kts | 240° |
| 2026-05-04 19:28 | -1.98001 | -52.66763 | 22459 ft | 295 kts | 242° |
| 2026-05-04 19:28 | -1.98939 | -52.68563 | 22735 ft | 296 kts | 241° |
| 2026-05-04 19:29 | -1.99959 | -52.70388 | 23013 ft | 297 kts | 240° |
| 2026-05-04 19:29 | -2.00975 | -52.72158 | 23292 ft | 297 kts | 240° |
| 2026-05-04 19:29 | -2.01944 | -52.73989 | 23567 ft | 298 kts | 245° |
| 2026-05-04 19:29 | -2.02710 | -52.75930 | 23731 ft | 302 kts | 251° |
| 2026-05-04 19:30 | -2.03320 | -52.77953 | 23806 ft | 307 kts | 254° |
| 2026-05-04 19:30 | -2.03867 | -52.80039 | 23848 ft | 312 kts | 256° |
| 2026-05-04 19:30 | -2.04317 | -52.82181 | 23874 ft | 317 kts | 260° |
| 2026-05-04 19:30 | -2.04650 | -52.84374 | 23887 ft | 320 kts | 262° |
| 2026-05-04 19:31 | -2.04947 | -52.86565 | 23893 ft | 323 kts | 262° |
| 2026-05-04 19:31 | -2.05277 | -52.88791 | 23896 ft | 325 kts | 261° |
| 2026-05-04 19:31 | -2.05643 | -52.91022 | 23901 ft | 326 kts | 260° |
| 2026-05-04 19:31 | -2.06026 | -52.93263 | 23902 ft | 327 kts | 260° |
| 2026-05-04 19:32 | -2.06400 | -52.95512 | 23906 ft | 328 kts | 261° |
| 2026-05-04 19:32 | -2.06764 | -52.97767 | 23903 ft | 328 kts | 261° |
| 2026-05-04 19:32 | -2.07120 | -53.00019 | 23904 ft | 329 kts | 261° |
| 2026-05-04 19:32 | -2.07474 | -53.02284 | 23902 ft | 329 kts | 261° |
| 2026-05-04 19:33 | -2.07834 | -53.04545 | 23903 ft | 329 kts | 261° |
| 2026-05-04 19:33 | -2.08200 | -53.06806 | 23903 ft | 330 kts | 261° |
| 2026-05-04 19:33 | -2.08566 | -53.09069 | 23903 ft | 330 kts | 261° |
| 2026-05-04 19:33 | -2.08929 | -53.11333 | 23903 ft | 330 kts | 261° |
| 2026-05-04 19:34 | -2.09287 | -53.13570 | 23901 ft | 330 kts | 261° |
| 2026-05-04 19:34 | -2.09649 | -53.15840 | 23903 ft | 330 kts | 261° |
| 2026-05-04 19:34 | -2.10012 | -53.18114 | 23903 ft | 330 kts | 261° |
| 2026-05-04 19:34 | -2.10374 | -53.20381 | 23904 ft | 331 kts | 261° |
| 2026-05-04 19:35 | -2.10750 | -53.22652 | 23906 ft | 331 kts | 259° |
| 2026-05-04 19:35 | -2.11137 | -53.24921 | 23905 ft | 331 kts | 260° |
| 2026-05-04 19:35 | -2.11482 | -53.27192 | 23905 ft | 331 kts | 261° |
| 2026-05-04 19:35 | -2.11817 | -53.29473 | 23905 ft | 331 kts | 261° |
| 2026-05-04 19:36 | -2.12165 | -53.31719 | 23909 ft | 331 kts | 260° |
| 2026-05-04 19:36 | -2.12534 | -53.33996 | 23906 ft | 331 kts | 260° |
| 2026-05-04 19:36 | -2.12902 | -53.36267 | 23908 ft | 331 kts | 260° |
| 2026-05-04 19:36 | -2.13272 | -53.38541 | 23910 ft | 331 kts | 260° |
| 2026-05-04 19:37 | -2.13635 | -53.40818 | 23903 ft | 332 kts | 261° |
| 2026-05-04 19:37 | -2.13993 | -53.43099 | 23900 ft | 332 kts | 261° |
| 2026-05-04 19:37 | -2.14112 | -53.43867 | 23903 ft | 332 kts | 261° |
| 2026-05-04 19:38 | -2.14318 | -53.45295 | 23905 ft | 332 kts | 262° |
| 2026-05-04 19:38 | -2.14665 | -53.47576 | 23902 ft | 332 kts | 261° |
| 2026-05-04 19:38 | -2.15046 | -53.49819 | 23904 ft | 332 kts | 259° |
| 2026-05-04 19:38 | -2.15449 | -53.52091 | 23906 ft | 332 kts | 260° |
| 2026-05-04 19:39 | -2.15824 | -53.54369 | 23904 ft | 332 kts | 261° |
| 2026-05-04 19:39 | -2.16175 | -53.56651 | 23905 ft | 332 kts | 261° |
| 2026-05-04 19:39 | -2.16522 | -53.58933 | 23904 ft | 331 kts | 261° |
| 2026-05-04 19:39 | -2.16882 | -53.61206 | 23906 ft | 331 kts | 261° |
| 2026-05-04 19:40 | -2.17247 | -53.63479 | 23907 ft | 331 kts | 261° |
| 2026-05-04 19:40 | -2.17615 | -53.65755 | 23907 ft | 331 kts | 261° |
| 2026-05-04 19:40 | -2.17976 | -53.68008 | 23906 ft | 331 kts | 261° |
| 2026-05-04 19:40 | -2.18343 | -53.70316 | 23906 ft | 331 kts | 261° |
| 2026-05-04 19:41 | -2.18699 | -53.72563 | 23914 ft | 332 kts | 261° |
| 2026-05-04 19:41 | -2.19061 | -53.74845 | 23910 ft | 332 kts | 261° |
| 2026-05-04 19:41 | -2.19425 | -53.77128 | 23900 ft | 332 kts | 261° |
| 2026-05-04 19:41 | -2.19791 | -53.79414 | 23902 ft | 332 kts | 261° |
| 2026-05-04 19:42 | -2.20156 | -53.81690 | 23904 ft | 332 kts | 261° |
| 2026-05-04 19:42 | -2.20519 | -53.83970 | 23904 ft | 332 kts | 261° |
| 2026-05-04 19:42 | -2.20880 | -53.86249 | 23906 ft | 332 kts | 261° |
| 2026-05-04 19:42 | -2.21242 | -53.88531 | 23907 ft | 332 kts | 261° |
| 2026-05-04 19:43 | -2.21599 | -53.90776 | 23910 ft | 332 kts | 261° |
| 2026-05-04 19:43 | -2.21963 | -53.93052 | 23908 ft | 332 kts | 261° |
| 2026-05-04 19:43 | -2.22326 | -53.95329 | 23909 ft | 332 kts | 261° |
| 2026-05-04 19:43 | -2.22688 | -53.97605 | 23905 ft | 332 kts | 261° |
| 2026-05-04 19:44 | -2.23049 | -53.99884 | 23903 ft | 332 kts | 261° |
| 2026-05-04 19:44 | -2.23412 | -54.02160 | 23904 ft | 332 kts | 261° |
| 2026-05-04 19:44 | -2.23774 | -54.04436 | 23905 ft | 332 kts | 261° |
| 2026-05-04 19:44 | -2.24137 | -54.06717 | 23904 ft | 332 kts | 261° |
| 2026-05-04 19:45 | -2.24500 | -54.08997 | 23906 ft | 332 kts | 261° |
| 2026-05-04 19:45 | -2.24862 | -54.11277 | 23906 ft | 332 kts | 261° |
| 2026-05-04 19:45 | -2.25208 | -54.13564 | 23906 ft | 332 kts | 264° |
| 2026-05-04 19:45 | -2.25247 | -54.15839 | 23907 ft | 332 kts | 273° |
| 2026-05-04 19:46 | -2.25025 | -54.18135 | 23904 ft | 332 kts | 278° |
| 2026-05-04 19:46 | -2.24661 | -54.20417 | 23903 ft | 332 kts | 280° |
| 2026-05-04 19:46 | -2.24247 | -54.22690 | 23905 ft | 332 kts | 282° |
| 2026-05-04 19:46 | -2.23685 | -54.24927 | 23904 ft | 331 kts | 287° |
| 2026-05-04 19:47 | -2.22985 | -54.27144 | 23673 ft | 338 kts | 288° |
| 2026-05-04 19:47 | -2.22271 | -54.29359 | 23316 ft | 331 kts | 288° |
| 2026-05-04 19:47 | -2.21626 | -54.31551 | 22934 ft | 325 kts | 286° |
| 2026-05-04 19:47 | -2.21049 | -54.33641 | 22561 ft | 311 kts | 285° |
| 2026-05-04 19:48 | -2.20494 | -54.35743 | 22180 ft | 307 kts | 285° |
| 2026-05-04 19:48 | -2.19927 | -54.37732 | 21812 ft | 297 kts | 287° |
| 2026-05-04 19:48 | -2.19339 | -54.39709 | 21446 ft | 296 kts | 287° |
| 2026-05-04 19:48 | -2.18848 | -54.41361 | 21140 ft | 296 kts | 286° |
| 2026-05-04 19:49 | -2.18279 | -54.43336 | 20787 ft | 296 kts | 286° |
| 2026-05-04 19:49 | -2.17696 | -54.45312 | 20435 ft | 295 kts | 287° |
| 2026-05-04 19:49 | -2.17109 | -54.47276 | 20085 ft | 295 kts | 287° |
| 2026-05-04 19:49 | -2.16526 | -54.49238 | 19734 ft | 294 kts | 287° |
| 2026-05-04 19:50 | -2.15956 | -54.51195 | 19390 ft | 293 kts | 286° |
| 2026-05-04 19:50 | -2.15391 | -54.53146 | 19052 ft | 292 kts | 286° |
| 2026-05-04 19:50 | -2.14828 | -54.55092 | 18721 ft | 291 kts | 287° |
| 2026-05-04 19:50 | -2.14265 | -54.57034 | 18391 ft | 290 kts | 287° |
| 2026-05-04 19:51 | -2.13710 | -54.58941 | 18047 ft | 289 kts | 287° |
| 2026-05-04 19:51 | -2.13146 | -54.60868 | 17666 ft | 288 kts | 287° |
| 2026-05-04 19:51 | -2.12585 | -54.62785 | 17281 ft | 287 kts | 288° |
| 2026-05-04 19:51 | -2.11990 | -54.64686 | 16911 ft | 286 kts | 288° |
| 2026-05-04 19:52 | -2.11443 | -54.66598 | 16528 ft | 285 kts | 286° |
| 2026-05-04 19:52 | -2.10921 | -54.68505 | 16172 ft | 284 kts | 287° |
| 2026-05-04 19:52 | -2.10393 | -54.70405 | 15810 ft | 283 kts | 286° |
| 2026-05-04 19:52 | -2.09880 | -54.72293 | 15454 ft | 281 kts | 287° |
| 2026-05-04 19:53 | -2.09339 | -54.74171 | 15102 ft | 280 kts | 288° |
| 2026-05-04 19:53 | -2.08776 | -54.76027 | 14754 ft | 278 kts | 288° |
| 2026-05-04 19:53 | -2.08210 | -54.77873 | 14411 ft | 277 kts | 288° |
| 2026-05-04 19:53 | -2.07663 | -54.79717 | 14071 ft | 276 kts | 288° |
| 2026-05-04 19:54 | -2.07139 | -54.81534 | 13740 ft | 275 kts | 288° |
| 2026-05-04 19:54 | -2.06605 | -54.83365 | 13366 ft | 275 kts | 288° |
| 2026-05-04 19:54 | -2.06058 | -54.85197 | 12988 ft | 274 kts | 288° |
| 2026-05-04 19:54 | -2.05535 | -54.87025 | 12618 ft | 273 kts | 287° |
| 2026-05-04 19:55 | -2.05018 | -54.88855 | 12248 ft | 273 kts | 287° |
| 2026-05-04 19:55 | -2.04498 | -54.90672 | 11887 ft | 272 kts | 287° |
| 2026-05-04 19:55 | -2.03968 | -54.92486 | 11521 ft | 271 kts | 288° |
| 2026-05-04 19:55 | -2.03616 | -54.93684 | 11275 ft | 270 kts | 288° |
| 2026-05-04 19:56 | -2.02919 | -54.96068 | 10814 ft | 269 kts | 287° |
| 2026-05-04 19:56 | -2.02399 | -54.97860 | 10467 ft | 268 kts | 287° |
| 2026-05-04 19:56 | -2.02053 | -54.99043 | 10241 ft | 267 kts | 287° |
| 2026-05-04 19:56 | -2.01535 | -55.00824 | 9896 ft | 266 kts | 287° |
| 2026-05-04 19:57 | -2.01021 | -55.02598 | 9528 ft | 265 kts | 287° |
| 2026-05-04 19:57 | -2.00507 | -55.04368 | 9152 ft | 264 kts | 287° |
| 2026-05-04 19:57 | -1.99995 | -55.06132 | 8768 ft | 263 kts | 287° |
| 2026-05-04 19:57 | -1.99483 | -55.07888 | 8412 ft | 263 kts | 287° |
| 2026-05-04 19:58 | -1.98975 | -55.09640 | 8045 ft | 262 kts | 287° |
| 2026-05-04 19:58 | -1.98466 | -55.11384 | 7687 ft | 261 kts | 287° |
| 2026-05-04 19:58 | -1.97961 | -55.13124 | 7325 ft | 259 kts | 287° |
| 2026-05-04 19:58 | -1.97475 | -55.14784 | 6967 ft | 247 kts | 287° |
| 2026-05-04 19:59 | -1.97019 | -55.16431 | 6617 ft | 238 kts | 286° |
| 2026-05-04 19:59 | -1.96567 | -55.18024 | 6268 ft | 240 kts | 287° |
| 2026-05-04 19:59 | -1.96091 | -55.19633 | 5904 ft | 243 kts | 288° |
| 2026-05-04 19:59 | -1.95588 | -55.21258 | 5535 ft | 246 kts | 288° |
| 2026-05-04 20:00 | -1.95090 | -55.22897 | 5173 ft | 247 kts | 288° |
| 2026-05-04 20:00 | -1.94609 | -55.24545 | 4818 ft | 247 kts | 287° |
| 2026-05-04 20:00 | -1.94140 | -55.26197 | 4452 ft | 247 kts | 287° |
| 2026-05-04 20:00 | -1.93668 | -55.27845 | 4072 ft | 245 kts | 287° |
| 2026-05-04 20:01 | -1.93205 | -55.29463 | 3712 ft | 244 kts | 287° |
| 2026-05-04 20:01 | -1.92736 | -55.31086 | 3375 ft | 242 kts | 287° |
| 2026-05-04 20:01 | -1.92262 | -55.32701 | 3018 ft | 241 kts | 288° |
| 2026-05-04 20:01 | -1.91785 | -55.34299 | 2657 ft | 238 kts | 288° |
| 2026-05-04 20:02 | -1.91333 | -55.35877 | 2314 ft | 233 kts | 287° |
| 2026-05-04 20:02 | -1.90891 | -55.37427 | 1950 ft | 230 kts | 287° |
| 2026-05-04 20:02 | -1.90458 | -55.38938 | 1732 ft | 221 kts | 286° |
| 2026-05-04 20:02 | -1.90060 | -55.40366 | 1632 ft | 211 kts | 285° |
| 2026-05-04 20:03 | -1.89675 | -55.41741 | 1581 ft | 201 kts | 286° |
| 2026-05-04 20:03 | -1.89291 | -55.43057 | 1556 ft | 193 kts | 287° |
| 2026-05-04 20:03 | -1.88907 | -55.44329 | 1561 ft | 188 kts | 287° |
| 2026-05-04 20:03 | -1.88529 | -55.45572 | 1549 ft | 185 kts | 287° |
| 2026-05-04 20:04 | -1.88160 | -55.46795 | 1546 ft | 183 kts | 286° |
| 2026-05-04 20:04 | -1.87800 | -55.48009 | 1551 ft | 182 kts | 286° |
| 2026-05-04 20:04 | -1.87443 | -55.49237 | 1550 ft | 186 kts | 286° |
| 2026-05-04 20:04 | -1.87085 | -55.50471 | 1541 ft | 188 kts | 286° |
| 2026-05-04 20:05 | -1.86720 | -55.51729 | 1549 ft | 189 kts | 285° |
| 2026-05-04 20:05 | -1.86506 | -55.53024 | 1548 ft | 190 kts | 273° |
| 2026-05-04 20:05 | -1.86457 | -55.54343 | 1542 ft | 190 kts | 271° |
| 2026-05-04 20:05 | -1.86438 | -55.55669 | 1500 ft | 193 kts | 270° |
| 2026-05-04 20:06 | -1.86427 | -55.57022 | 1415 ft | 196 kts | 270° |
| 2026-05-04 20:06 | -1.86416 | -55.58386 | 1385 ft | 196 kts | 270° |
| 2026-05-04 20:06 | -1.86406 | -55.59754 | 1360 ft | 196 kts | 270° |
| 2026-05-04 20:06 | -1.86398 | -55.61110 | 1352 ft | 195 kts | 270° |
| 2026-05-04 20:07 | -1.86385 | -55.62410 | 1373 ft | 177 kts | 271° |
| 2026-05-04 20:07 | -1.86388 | -55.63587 | 1514 ft | 166 kts | 266° |
| 2026-05-04 20:07 | -1.86475 | -55.64746 | 1503 ft | 168 kts | 261° |
| 2026-05-04 20:07 | -1.87074 | -55.65695 | 1508 ft | 171 kts | 208° |
| 2026-05-04 20:08 | -1.88230 | -55.65929 | 1511 ft | 174 kts | 173° |
| 2026-05-04 20:08 | -1.89263 | -55.65412 | 1508 ft | 165 kts | 130° |
| 2026-05-04 20:08 | -1.89600 | -55.64424 | 1511 ft | 142 kts | 86° |
| 2026-05-04 20:08 | -1.89540 | -55.63490 | 1483 ft | 130 kts | 81° |
| 2026-05-04 20:09 | -1.89378 | -55.62630 | 1451 ft | 124 kts | 73° |
| 2026-05-04 20:09 | -1.89158 | -55.61750 | 1404 ft | 137 kts | 77° |
| 2026-05-04 20:09 | -1.88934 | -55.60806 | 1413 ft | 141 kts | 75° |
| 2026-05-04 20:09 | -1.88674 | -55.59834 | 1374 ft | 146 kts | 75° |
| 2026-05-04 20:10 | -1.88412 | -55.58862 | 1376 ft | 146 kts | 74° |
| 2026-05-04 20:10 | -1.88148 | -55.57907 | 1441 ft | 143 kts | 75° |
| 2026-05-04 20:10 | -1.87882 | -55.56931 | 1394 ft | 148 kts | 75° |
| 2026-05-04 20:10 | -1.87646 | -55.55926 | 1334 ft | 141 kts | 77° |
| 2026-05-04 20:11 | -1.87412 | -55.55055 | 1126 ft | 124 kts | 71° |
| 2026-05-04 20:11 | -1.87227 | -55.54273 | 827 ft | 109 kts | 77° |
| 2026-05-04 20:11 | -1.87102 | -55.53550 | 697 ft | 106 kts | 81° |
| 2026-05-04 20:11 | -1.86991 | -55.52777 | 528 ft | 112 kts | 80° |
| 2026-05-04 20:12 | -1.86884 | -55.52032 | 336 ft | 105 kts | 81° |
| 2026-05-04 20:12 | -1.86795 | -55.51412 | 324 ft | 75 kts | 84° |
| 2026-05-04 20:12 | -1.86754 | -55.51105 | 319 ft | 10 kts | 81° |
| 2026-05-04 20:12 | -1.86740 | -55.51052 | 320 ft | 6 kts | 279° |
| 2026-05-04 20:13 | -1.86752 | -55.51107 | 319 ft | 12 kts | 260° |
| 2026-05-04 20:13 | -1.86768 | -55.51206 | 320 ft | 16 kts | 262° |
| 2026-05-04 20:13 | -1.86784 | -55.51316 | 320 ft | 16 kts | 262° |
| 2026-05-04 20:13 | -1.86800 | -55.51424 | 324 ft | 16 kts | 264° |
| 2026-05-04 20:14 | -1.86813 | -55.51533 | 325 ft | 16 kts | 263° |
| 2026-05-04 20:14 | -1.86874 | -55.51589 | 323 ft | 14 kts | 180° |
| 2026-05-04 20:14 | -1.86897 | -55.51624 | 325 ft | 2 kts | 283° |
| 2026-05-04 20:14 | -1.86897 | -55.51627 | 325 ft | 0 kts | 282° |